createdAt,value
2017-10-13T00:00:06.679Z,39.78
2017-10-13T00:01:07.290Z,39.48
2017-10-13T00:02:07.898Z,39.69
2017-10-13T00:03:08.513Z,39.50
2017-10-13T00:04:09.281Z,39.31
2017-10-13T00:05:09.890Z,39.50
2017-10-13T00:06:10.504Z,39.40
2017-10-13T00:07:11.118Z,39.50
2017-10-13T00:08:11.735Z,39.50
2017-10-13T00:09:12.523Z,39.50
2017-10-13T00:10:13.133Z,39.38
2017-10-13T00:11:13.744Z,39.28
2017-10-13T00:12:14.383Z,39.38
2017-10-13T00:13:14.998Z,39.19
2017-10-13T00:14:15.756Z,39.48
2017-10-13T00:15:16.379Z,39.76
2017-10-13T00:16:16.976Z,39.67
2017-10-13T00:17:17.587Z,39.57
2017-10-13T00:18:18.198Z,39.76
2017-10-13T00:19:18.957Z,39.95
2017-10-13T00:20:19.573Z,39.95
2017-10-13T00:21:20.180Z,40.05
2017-10-13T00:22:20.791Z,39.95
2017-10-13T00:23:21.402Z,39.95
2017-10-13T00:24:22.190Z,39.95
2017-10-13T00:25:22.800Z,39.76
2017-10-13T00:26:23.416Z,40.05
2017-10-13T00:27:24.026Z,39.95
2017-10-13T00:28:24.635Z,40.23
2017-10-13T00:29:25.394Z,40.05
2017-10-13T00:30:26.004Z,40.33
2017-10-13T00:31:26.614Z,40.23
2017-10-13T00:32:27.227Z,40.23
2017-10-13T00:33:27.838Z,40.05
2017-10-13T00:34:28.598Z,39.95
2017-10-13T00:35:29.209Z,39.95
2017-10-13T00:36:29.819Z,39.48
2017-10-13T00:37:30.428Z,39.76
2017-10-13T00:38:31.040Z,39.48
2017-10-13T00:39:31.802Z,39.48
2017-10-13T00:40:32.411Z,39.67
2017-10-13T00:41:33.022Z,39.57
2017-10-13T00:42:33.630Z,39.95
2017-10-13T00:43:34.242Z,40.23
2017-10-13T00:44:35.003Z,40.62
2017-10-13T00:45:35.643Z,40.81
2017-10-13T00:46:36.255Z,40.90
2017-10-13T00:47:36.895Z,40.90
2017-10-13T00:48:37.504Z,41.00
2017-10-13T00:49:38.306Z,40.90
2017-10-13T00:50:38.909Z,41.00
2017-10-13T00:51:39.524Z,41.00
2017-10-13T00:52:40.138Z,41.09
2017-10-13T00:53:40.746Z,40.90
2017-10-13T00:54:41.508Z,41.00
2017-10-13T00:55:42.117Z,41.00
2017-10-13T00:56:42.728Z,40.90
2017-10-13T00:57:43.341Z,40.90
2017-10-13T00:58:43.952Z,41.00
2017-10-13T00:59:44.718Z,41.00
2017-10-13T01:00:45.332Z,40.90
2017-10-13T01:01:45.946Z,40.81
2017-10-13T01:02:46.553Z,40.90
2017-10-13T01:03:47.163Z,41.00
2017-10-13T01:04:47.921Z,40.62
2017-10-13T01:05:48.532Z,40.90
2017-10-13T01:06:49.145Z,41.09
2017-10-13T01:07:49.756Z,40.90
2017-10-13T01:08:50.366Z,40.81
2017-10-13T01:09:51.124Z,41.00
2017-10-13T01:10:51.734Z,41.00
2017-10-13T01:11:52.345Z,40.90
2017-10-13T01:12:52.957Z,41.00
2017-10-13T01:13:53.599Z,40.62
2017-10-13T01:14:54.360Z,40.71
2017-10-13T01:15:54.975Z,40.52
2017-10-13T01:16:55.583Z,40.62
2017-10-13T01:17:56.193Z,40.62
2017-10-13T01:18:56.837Z,40.71
2017-10-13T01:19:57.621Z,40.62
2017-10-13T01:20:58.233Z,40.43
2017-10-13T01:21:58.842Z,40.43
2017-10-13T01:22:59.454Z,40.43
2017-10-13T01:24:00.063Z,40.52
2017-10-13T01:25:00.823Z,40.23
2017-10-13T01:26:01.434Z,40.23
2017-10-13T01:27:02.051Z,40.43
2017-10-13T01:28:02.658Z,40.43
2017-10-13T01:29:03.268Z,40.23
2017-10-13T01:30:04.027Z,40.33
2017-10-13T01:31:04.638Z,40.23
2017-10-13T01:32:05.248Z,40.71
2017-10-13T01:33:05.867Z,40.52
2017-10-13T01:34:06.472Z,40.43
2017-10-13T01:35:07.233Z,40.52
2017-10-13T01:36:07.879Z,40.52
2017-10-13T01:37:08.482Z,40.62
2017-10-13T01:38:09.092Z,40.43
2017-10-13T01:39:09.703Z,40.52
2017-10-13T01:40:10.464Z,40.52
2017-10-13T01:41:11.076Z,40.43
2017-10-13T01:42:11.688Z,40.71
2017-10-13T01:43:12.295Z,40.71
2017-10-13T01:44:12.905Z,40.43
2017-10-13T01:45:13.665Z,40.43
2017-10-13T01:46:14.276Z,40.43
2017-10-13T01:47:14.893Z,40.43
2017-10-13T01:48:15.498Z,40.52
2017-10-13T01:49:16.107Z,40.43
2017-10-13T01:50:16.867Z,40.71
2017-10-13T01:51:17.479Z,40.62
2017-10-13T01:52:18.090Z,40.81
2017-10-13T01:53:18.702Z,39.95
2017-10-13T01:54:19.310Z,40.05
2017-10-13T01:55:20.071Z,40.23
2017-10-13T01:56:20.713Z,40.14
2017-10-13T01:57:21.324Z,40.05
2017-10-13T01:58:21.933Z,40.23
2017-10-13T01:59:22.542Z,40.05
2017-10-13T02:00:23.308Z,39.95
2017-10-13T02:01:23.948Z,40.33
2017-10-13T02:02:24.560Z,40.23
2017-10-13T02:03:25.172Z,40.71
2017-10-13T02:04:25.782Z,40.14
2017-10-13T02:05:26.542Z,40.62
2017-10-13T02:06:27.187Z,40.81
2017-10-13T02:07:27.793Z,40.71
2017-10-13T02:08:28.402Z,40.71
2017-10-13T02:09:29.010Z,40.23
2017-10-13T02:10:29.771Z,40.62
2017-10-13T02:11:30.385Z,40.62
2017-10-13T02:12:31.000Z,40.43
2017-10-13T02:13:31.613Z,40.71
2017-10-13T02:14:32.224Z,40.71
2017-10-13T02:15:32.983Z,40.71
2017-10-13T02:16:33.604Z,40.62
2017-10-13T02:17:34.207Z,40.62
2017-10-13T02:18:34.853Z,40.71
2017-10-13T02:19:35.455Z,40.43
2017-10-13T02:20:36.213Z,40.23
2017-10-13T02:21:36.832Z,40.33
2017-10-13T02:22:37.438Z,40.43
2017-10-13T02:23:38.055Z,40.52
2017-10-13T02:24:38.660Z,40.22
2017-10-13T02:25:39.420Z,40.43
2017-10-13T02:26:40.030Z,40.41
2017-10-13T02:27:40.649Z,40.22
2017-10-13T02:28:41.262Z,40.31
2017-10-13T02:29:41.864Z,40.31
2017-10-13T02:30:42.624Z,40.41
2017-10-13T02:31:43.233Z,40.50
2017-10-13T02:32:43.843Z,40.41
2017-10-13T02:33:44.454Z,40.59
2017-10-13T02:34:45.063Z,40.50
2017-10-13T02:35:45.823Z,40.69
2017-10-13T02:36:46.434Z,40.50
2017-10-13T02:37:47.043Z,40.88
2017-10-13T02:38:47.651Z,41.07
2017-10-13T02:39:48.269Z,40.98
2017-10-13T02:40:49.028Z,40.98
2017-10-13T02:41:49.643Z,40.88
2017-10-13T02:42:50.247Z,41.07
2017-10-13T02:43:50.861Z,41.17
2017-10-13T02:44:51.467Z,41.07
2017-10-13T02:45:52.230Z,41.64
2017-10-13T02:46:52.837Z,41.64
2017-10-13T02:47:53.451Z,41.64
2017-10-13T02:48:54.056Z,41.55
2017-10-13T02:49:54.671Z,41.55
2017-10-13T02:50:55.427Z,41.55
2017-10-13T02:51:56.037Z,40.69
2017-10-13T02:52:56.649Z,41.55
2017-10-13T02:53:57.258Z,41.64
2017-10-13T02:54:57.872Z,41.64
2017-10-13T02:55:58.635Z,40.88
2017-10-13T02:56:59.257Z,41.64
2017-10-13T02:57:59.856Z,41.17
2017-10-13T02:59:00.469Z,41.55
2017-10-13T03:00:01.074Z,41.74
2017-10-13T03:01:01.841Z,41.64
2017-10-13T03:02:02.447Z,41.83
2017-10-13T03:03:03.056Z,41.46
2017-10-13T03:04:03.665Z,41.36
2017-10-13T03:05:04.317Z,41.55
2017-10-13T03:06:05.112Z,41.46
2017-10-13T03:07:05.714Z,41.46
2017-10-13T03:08:06.323Z,41.36
2017-10-13T03:09:06.963Z,41.07
2017-10-13T03:10:07.572Z,41.17
2017-10-13T03:11:08.366Z,41.17
2017-10-13T03:12:08.980Z,41.17
2017-10-13T03:13:09.588Z,41.17
2017-10-13T03:14:10.228Z,40.88
2017-10-13T03:15:10.839Z,40.69
2017-10-13T03:16:11.600Z,40.79
2017-10-13T03:17:12.209Z,40.98
2017-10-13T03:18:12.819Z,40.59
2017-10-13T03:19:13.428Z,40.98
2017-10-13T03:20:14.037Z,40.88
2017-10-13T03:21:14.797Z,40.88
2017-10-13T03:22:15.437Z,41.07
2017-10-13T03:23:16.051Z,40.88
2017-10-13T03:24:16.663Z,40.88
2017-10-13T03:25:17.303Z,40.88
2017-10-13T03:26:18.092Z,40.88
2017-10-13T03:27:18.736Z,40.59
2017-10-13T03:28:19.347Z,40.98
2017-10-13T03:29:19.959Z,40.79
2017-10-13T03:30:20.566Z,40.88
2017-10-13T03:31:21.325Z,40.88
2017-10-13T03:32:21.936Z,40.50
2017-10-13T03:33:22.545Z,41.07
2017-10-13T03:34:23.154Z,41.07
2017-10-13T03:35:23.763Z,40.79
2017-10-13T03:36:24.522Z,40.50
2017-10-13T03:37:25.133Z,40.62
2017-10-13T03:38:25.743Z,40.52
2017-10-13T03:39:26.353Z,40.31
2017-10-13T03:40:26.967Z,40.62
2017-10-13T03:41:27.726Z,40.71
2017-10-13T03:42:28.341Z,40.43
2017-10-13T03:43:28.947Z,40.43
2017-10-13T03:44:29.557Z,40.41
2017-10-13T03:45:30.170Z,40.33
2017-10-13T03:46:30.928Z,40.52
2017-10-13T03:47:31.538Z,40.33
2017-10-13T03:48:32.147Z,40.43
2017-10-13T03:49:32.762Z,40.43
2017-10-13T03:50:33.400Z,40.33
2017-10-13T03:51:34.211Z,40.43
2017-10-13T03:52:34.823Z,40.43
2017-10-13T03:53:35.431Z,40.62
2017-10-13T03:54:36.042Z,40.71
2017-10-13T03:55:36.657Z,40.05
2017-10-13T03:56:37.463Z,40.23
2017-10-13T03:57:38.072Z,40.05
2017-10-13T03:58:38.697Z,39.95
2017-10-13T03:59:39.294Z,40.05
2017-10-13T04:00:39.904Z,39.48
2017-10-13T04:01:40.690Z,39.67
2017-10-13T04:02:41.299Z,39.76
2017-10-13T04:03:41.911Z,39.67
2017-10-13T04:04:42.523Z,39.57
2017-10-13T04:05:43.133Z,39.86
2017-10-13T04:06:43.942Z,39.57
2017-10-13T04:07:44.559Z,39.19
2017-10-13T04:08:45.169Z,39.28
2017-10-13T04:09:45.809Z,39.48
2017-10-13T04:10:46.449Z,39.38
2017-10-13T04:11:47.259Z,39.48
2017-10-13T04:12:47.874Z,39.48
2017-10-13T04:13:48.477Z,39.38
2017-10-13T04:14:49.092Z,39.48
2017-10-13T04:15:49.702Z,39.48
2017-10-13T04:16:50.518Z,39.57
2017-10-13T04:17:51.132Z,39.28
2017-10-13T04:18:51.739Z,39.38
2017-10-13T04:19:52.351Z,39.48
2017-10-13T04:20:52.961Z,39.26
2017-10-13T04:21:53.782Z,39.36
2017-10-13T04:22:54.383Z,39.07
2017-10-13T04:23:54.991Z,39.28
2017-10-13T04:24:55.600Z,39.26
2017-10-13T04:25:56.209Z,39.45
2017-10-13T04:26:57.070Z,39.45
2017-10-13T04:27:57.679Z,39.57
2017-10-13T04:28:58.296Z,39.57
2017-10-13T04:29:58.901Z,39.36
2017-10-13T04:30:59.511Z,39.45
2017-10-13T04:32:00.426Z,39.55
2017-10-13T04:33:01.034Z,39.55
2017-10-13T04:34:01.645Z,39.55
2017-10-13T04:35:02.256Z,39.55
2017-10-13T04:36:02.871Z,39.45
2017-10-13T04:37:03.727Z,39.65
2017-10-13T04:38:04.337Z,39.55
2017-10-13T04:39:04.946Z,39.45
2017-10-13T04:40:05.555Z,39.55
2017-10-13T04:41:06.165Z,39.55
2017-10-13T04:42:07.024Z,39.36
2017-10-13T04:43:07.634Z,39.45
2017-10-13T04:44:08.252Z,39.36
2017-10-13T04:45:08.857Z,39.45
2017-10-13T04:46:09.471Z,39.45
2017-10-13T04:47:10.377Z,39.45
2017-10-13T04:48:10.998Z,39.45
2017-10-13T04:49:11.602Z,39.36
2017-10-13T04:50:12.212Z,39.45
2017-10-13T04:51:12.853Z,39.55
2017-10-13T04:52:13.714Z,39.55
2017-10-13T04:53:14.330Z,39.84
2017-10-13T04:54:14.937Z,39.45
2017-10-13T04:55:15.577Z,39.17
2017-10-13T04:56:16.188Z,39.17
2017-10-13T04:57:17.003Z,38.98
2017-10-13T04:58:17.617Z,38.98
2017-10-13T04:59:18.224Z,38.98
2017-10-13T05:00:18.834Z,39.07
2017-10-13T05:01:19.452Z,39.07
2017-10-13T05:02:20.307Z,39.07
2017-10-13T05:03:20.918Z,39.07
2017-10-13T05:04:21.532Z,38.98
2017-10-13T05:05:22.138Z,38.98
2017-10-13T05:06:22.752Z,38.79
2017-10-13T05:07:23.642Z,38.79
2017-10-13T05:08:24.250Z,38.79
2017-10-13T05:09:24.887Z,38.70
2017-10-13T05:10:25.496Z,38.79
2017-10-13T05:11:26.112Z,38.70
2017-10-13T05:12:27.018Z,38.79
2017-10-13T05:13:27.626Z,38.81
2017-10-13T05:14:28.236Z,38.79
2017-10-13T05:15:28.876Z,38.60
2017-10-13T05:16:29.491Z,38.60
2017-10-13T05:17:30.302Z,38.60
2017-10-13T05:18:30.909Z,38.70
2017-10-13T05:19:31.523Z,38.51
2017-10-13T05:20:32.130Z,38.60
2017-10-13T05:21:32.769Z,38.51
2017-10-13T05:22:33.628Z,38.51
2017-10-13T05:23:34.247Z,38.60
2017-10-13T05:24:34.881Z,38.60
2017-10-13T05:25:35.491Z,38.60
2017-10-13T05:26:36.111Z,38.60
2017-10-13T05:27:37.020Z,38.70
2017-10-13T05:28:37.627Z,38.60
2017-10-13T05:29:38.236Z,38.51
2017-10-13T05:30:38.847Z,38.89
2017-10-13T05:31:39.488Z,38.60
2017-10-13T05:32:40.349Z,38.41
2017-10-13T05:33:40.987Z,38.41
2017-10-13T05:34:41.597Z,38.60
2017-10-13T05:35:42.206Z,38.60
2017-10-13T05:36:42.815Z,38.60
2017-10-13T05:37:43.730Z,38.70
2017-10-13T05:38:44.338Z,38.62
2017-10-13T05:39:44.950Z,38.51
2017-10-13T05:40:45.588Z,38.60
2017-10-13T05:41:46.199Z,38.60
2017-10-13T05:42:47.065Z,38.43
2017-10-13T05:43:47.674Z,38.51
2017-10-13T05:44:48.290Z,38.89
2017-10-13T05:45:48.905Z,38.89
2017-10-13T05:46:49.506Z,38.79
2017-10-13T05:47:50.366Z,38.79
2017-10-13T05:48:50.976Z,39.00
2017-10-13T05:49:51.615Z,38.89
2017-10-13T05:50:52.224Z,38.89
2017-10-13T05:51:52.843Z,39.00
2017-10-13T05:52:53.697Z,39.09
2017-10-13T05:53:54.308Z,39.84
2017-10-13T05:54:54.918Z,39.74
2017-10-13T05:55:55.533Z,39.55
2017-10-13T05:56:56.146Z,39.74
2017-10-13T05:57:57.006Z,39.67
2017-10-13T05:58:57.643Z,39.86
2017-10-13T05:59:58.254Z,39.19
2017-10-13T06:00:58.865Z,39.57
2017-10-13T06:01:59.475Z,39.09
2017-10-13T06:03:00.336Z,39.09
2017-10-13T06:04:00.948Z,38.90
2017-10-13T06:05:01.561Z,39.09
2017-10-13T06:06:02.181Z,38.71
2017-10-13T06:07:02.785Z,38.71
2017-10-13T06:08:03.545Z,38.81
2017-10-13T06:09:04.158Z,38.81
2017-10-13T06:10:04.768Z,39.00
2017-10-13T06:11:05.378Z,38.81
2017-10-13T06:12:05.994Z,38.90
2017-10-13T06:13:06.903Z,39.09
2017-10-13T06:14:07.542Z,38.53
2017-10-13T06:15:08.159Z,38.53
2017-10-13T06:16:08.770Z,38.53
2017-10-13T06:17:09.411Z,38.62
2017-10-13T06:18:10.222Z,38.62
2017-10-13T06:19:10.832Z,38.53
2017-10-13T06:20:11.444Z,38.53
2017-10-13T06:21:12.052Z,38.53
2017-10-13T06:22:12.664Z,38.71
2017-10-13T06:23:13.506Z,38.71
2017-10-13T06:24:14.115Z,38.62
2017-10-13T06:25:14.732Z,38.53
2017-10-13T06:26:15.346Z,38.43
2017-10-13T06:27:15.985Z,38.71
2017-10-13T06:28:16.932Z,38.71
2017-10-13T06:29:17.545Z,38.62
2017-10-13T06:30:18.159Z,38.53
2017-10-13T06:31:18.766Z,38.62
2017-10-13T06:32:19.382Z,38.53
2017-10-13T06:33:20.273Z,38.62
2017-10-13T06:34:20.882Z,38.53
2017-10-13T06:35:21.493Z,38.53
2017-10-13T06:36:22.100Z,38.62
2017-10-13T06:37:22.718Z,38.53
2017-10-13T06:38:23.584Z,38.53
2017-10-13T06:39:24.193Z,38.62
2017-10-13T06:40:24.801Z,38.53
2017-10-13T06:41:25.443Z,38.53
2017-10-13T06:42:26.064Z,38.53
2017-10-13T06:43:26.967Z,38.53
2017-10-13T06:44:27.581Z,38.62
2017-10-13T06:45:28.222Z,38.53
2017-10-13T06:46:28.838Z,38.24
2017-10-13T06:47:29.446Z,38.71
2017-10-13T06:48:30.361Z,38.62
2017-10-13T06:49:30.968Z,38.43
2017-10-13T06:50:31.609Z,38.53
2017-10-13T06:51:32.249Z,38.43
2017-10-13T06:52:32.860Z,38.34
2017-10-13T06:53:33.721Z,38.53
2017-10-13T06:54:34.332Z,38.43
2017-10-13T06:55:34.942Z,38.53
2017-10-13T06:56:35.553Z,38.34
2017-10-13T06:57:36.172Z,38.43
2017-10-13T06:58:37.085Z,38.24
2017-10-13T06:59:37.697Z,38.14
2017-10-13T07:00:38.312Z,38.14
2017-10-13T07:01:38.919Z,38.05
2017-10-13T07:02:39.528Z,38.14
2017-10-13T07:03:40.394Z,38.34
2017-10-13T07:04:40.999Z,38.24
2017-10-13T07:05:41.609Z,38.24
2017-10-13T07:06:42.250Z,38.34
2017-10-13T07:07:42.861Z,38.24
2017-10-13T07:08:43.770Z,38.24
2017-10-13T07:09:44.386Z,38.24
2017-10-13T07:10:44.996Z,38.24
2017-10-13T07:11:45.608Z,38.05
2017-10-13T07:12:46.221Z,38.24
2017-10-13T07:13:47.163Z,38.24
2017-10-13T07:14:47.804Z,37.86
2017-10-13T07:15:48.422Z,37.86
2017-10-13T07:16:49.069Z,37.95
2017-10-13T07:17:49.675Z,38.05
2017-10-13T07:18:50.537Z,37.76
2017-10-13T07:19:51.146Z,37.86
2017-10-13T07:20:51.793Z,37.86
2017-10-13T07:21:52.400Z,38.05
2017-10-13T07:22:53.010Z,38.14
2017-10-13T07:23:53.921Z,38.05
2017-10-13T07:24:54.539Z,37.86
2017-10-13T07:25:55.146Z,37.88
2017-10-13T07:26:55.763Z,37.78
2017-10-13T07:27:56.380Z,37.88
2017-10-13T07:28:57.275Z,37.78
2017-10-13T07:29:57.894Z,37.97
2017-10-13T07:30:58.505Z,38.07
2017-10-13T07:31:59.124Z,37.97
2017-10-13T07:32:59.740Z,37.99
2017-10-13T07:34:00.599Z,38.18
2017-10-13T07:35:01.215Z,38.09
2017-10-13T07:36:01.829Z,37.90
2017-10-13T07:37:02.444Z,37.82
2017-10-13T07:38:03.060Z,37.82
2017-10-13T07:39:03.974Z,37.73
2017-10-13T07:40:04.588Z,37.82
2017-10-13T07:41:05.203Z,37.82
2017-10-13T07:42:05.823Z,37.82
2017-10-13T07:43:06.435Z,37.84
2017-10-13T07:44:07.299Z,37.27
2017-10-13T07:45:07.919Z,37.46
2017-10-13T07:46:08.530Z,37.36
2017-10-13T07:47:09.146Z,36.98
2017-10-13T07:48:09.762Z,37.17
2017-10-13T07:49:10.632Z,36.88
2017-10-13T07:50:11.247Z,36.69
2017-10-13T07:51:11.865Z,36.52
2017-10-13T07:52:12.479Z,36.71
2017-10-13T07:53:13.095Z,37.00
2017-10-13T07:54:13.964Z,36.71
2017-10-13T07:55:14.611Z,36.62
2017-10-13T07:56:15.224Z,36.43
2017-10-13T07:57:15.843Z,36.52
2017-10-13T07:58:16.486Z,36.14
2017-10-13T07:59:17.385Z,36.33
2017-10-13T08:00:17.998Z,36.16
2017-10-13T08:01:18.641Z,36.16
2017-10-13T08:02:19.260Z,35.95
2017-10-13T08:03:19.878Z,36.05
2017-10-13T08:04:20.738Z,36.16
2017-10-13T08:05:21.367Z,36.16
2017-10-13T08:06:22.010Z,36.33
2017-10-13T08:07:22.625Z,36.43
2017-10-13T08:08:23.245Z,36.24
2017-10-13T08:09:24.107Z,36.16
2017-10-13T08:10:24.722Z,36.25
2017-10-13T08:11:25.372Z,36.16
2017-10-13T08:12:25.988Z,36.25
2017-10-13T08:13:26.601Z,35.87
2017-10-13T08:14:27.547Z,35.78
2017-10-13T08:15:28.163Z,35.49
2017-10-13T08:16:28.779Z,35.30
2017-10-13T08:17:29.394Z,35.03
2017-10-13T08:18:30.011Z,35.21
2017-10-13T08:19:30.913Z,34.82
2017-10-13T08:20:31.525Z,35.02
2017-10-13T08:21:32.140Z,34.94
2017-10-13T08:22:32.766Z,35.03
2017-10-13T08:23:33.373Z,35.03
2017-10-13T08:24:34.287Z,34.36
2017-10-13T08:25:34.904Z,34.65
2017-10-13T08:26:35.549Z,34.55
2017-10-13T08:27:36.164Z,34.75
2017-10-13T08:28:36.780Z,34.94
2017-10-13T08:29:37.645Z,34.84
2017-10-13T08:30:38.275Z,34.84
2017-10-13T08:31:38.880Z,34.75
2017-10-13T08:32:39.497Z,34.84
2017-10-13T08:33:40.111Z,34.27
2017-10-13T08:34:41.012Z,33.98
2017-10-13T08:35:41.630Z,33.70
2017-10-13T08:36:42.243Z,34.08
2017-10-13T08:37:42.870Z,34.09
2017-10-13T08:38:43.506Z,33.81
2017-10-13T08:39:44.374Z,33.81
2017-10-13T08:40:44.998Z,33.22
2017-10-13T08:41:45.612Z,33.71
2017-10-13T08:42:46.259Z,33.52
2017-10-13T08:43:46.873Z,33.33
2017-10-13T08:44:47.788Z,33.42
2017-10-13T08:45:48.402Z,33.42
2017-10-13T08:46:49.021Z,33.23
2017-10-13T08:47:49.637Z,32.95
2017-10-13T08:48:50.253Z,32.37
2017-10-13T08:49:51.117Z,32.57
2017-10-13T08:50:51.732Z,32.68
2017-10-13T08:51:52.348Z,32.49
2017-10-13T08:52:52.994Z,32.18
2017-10-13T08:53:53.615Z,32.10
2017-10-13T08:54:54.531Z,32.01
2017-10-13T08:55:55.151Z,32.29
2017-10-13T08:56:55.765Z,32.58
2017-10-13T08:57:56.381Z,32.68
2017-10-13T08:58:57.000Z,32.10
2017-10-13T08:59:57.867Z,31.72
2017-10-13T09:00:58.485Z,31.72
2017-10-13T09:01:59.099Z,31.93
2017-10-13T09:02:59.745Z,31.72
2017-10-13T09:04:00.358Z,31.63
2017-10-13T09:05:01.275Z,31.74
2017-10-13T09:06:01.892Z,31.45
2017-10-13T09:07:02.508Z,31.07
2017-10-13T09:08:03.159Z,31.16
2017-10-13T09:09:03.775Z,30.40
2017-10-13T09:10:04.691Z,30.40
2017-10-13T09:11:05.347Z,30.40
2017-10-13T09:12:05.992Z,30.40
2017-10-13T09:13:06.608Z,30.59
2017-10-13T09:14:07.257Z,30.02
2017-10-13T09:15:08.129Z,30.40
2017-10-13T09:16:08.740Z,30.40
2017-10-13T09:17:09.356Z,30.02
2017-10-13T09:18:09.971Z,29.94
2017-10-13T09:19:10.592Z,30.13
2017-10-13T09:20:11.507Z,29.94
2017-10-13T09:21:12.129Z,29.84
2017-10-13T09:22:12.743Z,29.74
2017-10-13T09:23:13.359Z,29.46
2017-10-13T09:24:13.975Z,29.36
2017-10-13T09:25:14.893Z,29.57
2017-10-13T09:26:15.541Z,29.76
2017-10-13T09:27:16.160Z,29.28
2017-10-13T09:28:16.780Z,29.20
2017-10-13T09:29:17.428Z,29.01
2017-10-13T09:30:18.294Z,29.01
2017-10-13T09:31:18.912Z,28.72
2017-10-13T09:32:19.528Z,28.72
2017-10-13T09:33:20.177Z,28.34
2017-10-13T09:34:20.791Z,29.20
2017-10-13T09:35:21.658Z,28.72
2017-10-13T09:36:22.314Z,28.81
2017-10-13T09:37:22.931Z,28.72
2017-10-13T09:38:23.546Z,28.35
2017-10-13T09:39:24.164Z,28.35
2017-10-13T09:40:25.032Z,28.55
2017-10-13T09:41:25.686Z,28.64
2017-10-13T09:42:26.302Z,28.06
2017-10-13T09:43:26.924Z,28.16
2017-10-13T09:44:27.539Z,28.55
2017-10-13T09:45:28.462Z,27.78
2017-10-13T09:46:29.082Z,27.01
2017-10-13T09:47:29.729Z,27.78
2017-10-13T09:48:30.347Z,27.12
2017-10-13T09:49:30.965Z,27.03
2017-10-13T09:50:31.832Z,26.93
2017-10-13T09:51:32.450Z,26.16
2017-10-13T09:52:33.070Z,26.35
2017-10-13T09:53:33.691Z,26.45
2017-10-13T09:54:34.311Z,26.26
2017-10-13T09:55:35.178Z,26.16
2017-10-13T09:56:35.825Z,26.92
2017-10-13T09:57:36.454Z,26.16
2017-10-13T09:58:37.104Z,25.86
2017-10-13T09:59:37.723Z,25.29
2017-10-13T10:00:38.601Z,25.19
2017-10-13T10:01:39.219Z,25.96
2017-10-13T10:02:39.833Z,26.25
2017-10-13T10:03:40.452Z,26.15
2017-10-13T10:04:41.069Z,26.15
2017-10-13T10:05:41.944Z,26.25
2017-10-13T10:06:42.556Z,25.86
2017-10-13T10:07:43.175Z,26.06
2017-10-13T10:08:43.799Z,26.16
2017-10-13T10:09:44.422Z,25.87
2017-10-13T10:10:45.337Z,25.68
2017-10-13T10:11:45.960Z,25.59
2017-10-13T10:12:46.584Z,25.78
2017-10-13T10:13:47.200Z,25.78
2017-10-13T10:14:47.823Z,25.87
2017-10-13T10:15:48.738Z,25.70
2017-10-13T10:16:49.359Z,25.79
2017-10-13T10:17:49.979Z,25.51
2017-10-13T10:18:50.606Z,25.31
2017-10-13T10:19:51.220Z,25.21
2017-10-13T10:20:52.140Z,25.02
2017-10-13T10:21:52.763Z,25.41
2017-10-13T10:22:53.380Z,25.12
2017-10-13T10:23:54.006Z,25.31
2017-10-13T10:24:54.623Z,25.31
2017-10-13T10:25:55.494Z,25.71
2017-10-13T10:26:56.120Z,25.81
2017-10-13T10:27:56.743Z,25.71
2017-10-13T10:28:57.365Z,25.62
2017-10-13T10:29:57.981Z,25.92
2017-10-13T10:30:58.906Z,25.62
2017-10-13T10:31:59.525Z,25.24
2017-10-13T10:33:00.151Z,25.92
2017-10-13T10:34:00.768Z,24.87
2017-10-13T10:35:01.389Z,24.76
2017-10-13T10:36:02.315Z,24.95
2017-10-13T10:37:02.967Z,25.05
2017-10-13T10:38:03.593Z,25.24
2017-10-13T10:39:04.215Z,25.43
2017-10-13T10:40:04.843Z,25.24
2017-10-13T10:41:05.708Z,25.35
2017-10-13T10:42:06.328Z,25.53
2017-10-13T10:43:06.950Z,25.05
2017-10-13T10:44:07.568Z,25.34
2017-10-13T10:45:08.194Z,25.05
2017-10-13T10:46:09.114Z,24.86
2017-10-13T10:47:09.734Z,25.15
2017-10-13T10:48:10.356Z,25.05
2017-10-13T10:49:10.982Z,25.34
2017-10-13T10:50:11.601Z,24.57
2017-10-13T10:51:12.524Z,24.86
2017-10-13T10:52:13.144Z,25.43
2017-10-13T10:53:13.770Z,25.34
2017-10-13T10:54:14.388Z,24.57
2017-10-13T10:55:15.010Z,24.57
2017-10-13T10:56:15.888Z,25.43
2017-10-13T10:57:16.514Z,25.35
2017-10-13T10:58:17.133Z,25.35
2017-10-13T10:59:17.787Z,24.87
2017-10-13T11:00:18.409Z,25.35
2017-10-13T11:01:19.276Z,25.54
2017-10-13T11:02:19.898Z,25.35
2017-10-13T11:03:20.518Z,25.27
2017-10-13T11:04:21.168Z,25.27
2017-10-13T11:05:21.820Z,25.46
2017-10-13T11:06:22.747Z,24.98
2017-10-13T11:07:23.398Z,25.18
2017-10-13T11:08:24.020Z,24.99
2017-10-13T11:09:24.638Z,24.99
2017-10-13T11:10:25.268Z,24.69
2017-10-13T11:11:26.135Z,24.90
2017-10-13T11:12:26.760Z,24.90
2017-10-13T11:13:27.378Z,24.79
2017-10-13T11:14:28.002Z,23.74
2017-10-13T11:15:28.624Z,24.50
2017-10-13T11:16:29.497Z,24.98
2017-10-13T11:17:30.119Z,24.61
2017-10-13T11:18:30.740Z,25.28
2017-10-13T11:19:31.362Z,24.51
2017-10-13T11:20:32.014Z,24.91
2017-10-13T11:21:32.936Z,24.81
2017-10-13T11:22:33.566Z,24.91
2017-10-13T11:23:34.193Z,24.71
2017-10-13T11:24:34.838Z,23.56
2017-10-13T11:25:35.461Z,23.66
2017-10-13T11:26:36.413Z,23.46
2017-10-13T11:27:37.005Z,23.54
2017-10-13T11:28:37.629Z,24.21
2017-10-13T11:29:38.250Z,24.30
2017-10-13T11:30:38.873Z,24.40
2017-10-13T11:31:39.744Z,24.40
2017-10-13T11:32:40.366Z,24.40
2017-10-13T11:33:40.995Z,24.98
2017-10-13T11:34:41.616Z,25.07
2017-10-13T11:35:42.236Z,25.38
2017-10-13T11:36:43.008Z,25.38
2017-10-13T11:37:43.659Z,25.39
2017-10-13T11:38:44.281Z,24.81
2017-10-13T11:39:44.933Z,24.81
2017-10-13T11:40:45.555Z,24.71
2017-10-13T11:41:46.480Z,24.23
2017-10-13T11:42:47.109Z,24.23
2017-10-13T11:43:47.731Z,24.52
2017-10-13T11:44:48.351Z,24.71
2017-10-13T11:45:48.971Z,24.81
2017-10-13T11:46:49.743Z,24.71
2017-10-13T11:47:50.374Z,24.81
2017-10-13T11:48:50.987Z,24.71
2017-10-13T11:49:51.614Z,24.91
2017-10-13T11:50:52.236Z,24.33
2017-10-13T11:51:53.008Z,24.52
2017-10-13T11:52:53.631Z,25.10
2017-10-13T11:53:54.258Z,24.81
2017-10-13T11:54:54.883Z,24.62
2017-10-13T11:55:55.510Z,23.93
2017-10-13T11:56:56.285Z,24.22
2017-10-13T11:57:56.914Z,24.70
2017-10-13T11:58:57.533Z,24.98
2017-10-13T11:59:58.167Z,24.60
2017-10-13T12:00:58.778Z,24.69
2017-10-13T12:01:59.550Z,25.56
2017-10-13T12:03:00.172Z,24.80
2017-10-13T12:04:00.794Z,24.80
2017-10-13T12:05:01.417Z,25.29
2017-10-13T12:06:02.042Z,24.91
2017-10-13T12:07:02.819Z,24.91
2017-10-13T12:08:03.444Z,24.52
2017-10-13T12:09:04.064Z,24.71
2017-10-13T12:10:04.686Z,25.01
2017-10-13T12:11:05.308Z,24.91
2017-10-13T12:12:06.086Z,24.43
2017-10-13T12:13:06.745Z,24.23
2017-10-13T12:14:07.367Z,24.62
2017-10-13T12:15:07.990Z,23.94
2017-10-13T12:16:08.610Z,24.32
2017-10-13T12:17:09.383Z,24.51
2017-10-13T12:18:10.007Z,24.61
2017-10-13T12:19:10.629Z,24.51
2017-10-13T12:20:11.250Z,24.32
2017-10-13T12:21:11.878Z,24.61
2017-10-13T12:22:12.646Z,24.32
2017-10-13T12:23:13.273Z,24.80
2017-10-13T12:24:13.895Z,24.90
2017-10-13T12:25:14.522Z,25.47
2017-10-13T12:26:15.142Z,25.29
2017-10-13T12:27:15.942Z,25.29
2017-10-13T12:28:16.566Z,24.81
2017-10-13T12:29:17.192Z,24.71
2017-10-13T12:30:17.811Z,24.71
2017-10-13T12:31:18.434Z,24.54
2017-10-13T12:32:19.203Z,24.63
2017-10-13T12:33:19.832Z,24.82
2017-10-13T12:34:20.451Z,24.73
2017-10-13T12:35:21.109Z,24.24
2017-10-13T12:36:21.730Z,24.34
2017-10-13T12:37:22.512Z,24.65
2017-10-13T12:38:23.137Z,24.26
2017-10-13T12:39:23.758Z,23.78
2017-10-13T12:40:24.380Z,23.78
2017-10-13T12:41:25.009Z,23.58
2017-10-13T12:42:25.781Z,23.97
2017-10-13T12:43:26.403Z,23.68
2017-10-13T12:44:27.026Z,23.68
2017-10-13T12:45:27.651Z,23.78
2017-10-13T12:46:28.288Z,23.97
2017-10-13T12:47:29.051Z,24.18
2017-10-13T12:48:29.667Z,23.98
2017-10-13T12:49:30.296Z,23.51
2017-10-13T12:50:30.915Z,23.80
2017-10-13T12:51:31.541Z,23.22
2017-10-13T12:52:32.314Z,23.40
2017-10-13T12:53:32.937Z,23.61
2017-10-13T12:54:33.562Z,23.80
2017-10-13T12:55:34.185Z,23.80
2017-10-13T12:56:34.809Z,23.91
2017-10-13T12:57:35.583Z,23.24
2017-10-13T12:58:36.204Z,22.56
2017-10-13T12:59:36.827Z,22.17
2017-10-13T13:00:37.450Z,22.36